Decoded Metar for KDIJ (DRIGGS REED MEM in ID, USA) (IATA:DIJ) | Meteo·Mobile Aviation Weather
aviador You're here:

KDIJ Decoded Metar

DRIGGS REED MEM in ID, USA
Report Time2020-01-27 02:56:00
UTC Time2020-01-27 03:32:55
Flight Rules vfr VFR
Wind160° at 06 kt
W.Decomp.*RWY 21: 2.8 kt HW 5.3 kt LCW
Visibility9999 m
Phenomena:N/A
Clouds:Few 036 Hf
Overcast 055 Hf
Expected CloudBase > 800 ft AGL from Temp-Dew spread
Ceiling5,500 ft
Temp02°C (ISA -1)
Dew Point00°C (87% RH)
AAT-2.1°C
QNH1015 hPa
Density Alt6,188 ft
Elevation6,230 ft
Report Wrong Elevation
Raw Report
KDIJ 270256Z AUTO 16006KT 10SM FEW036 OVC055 02/00 A2998 RMK AO2
SLP167 60000 T00170000 56004=

Extra information for KDIJ:More info

Metar Taf Metar & Taf Last 4 Metars F.Rules Stats Wind Profile Meteogram Temp Stats Airport Information Weather charts Add Link Nearby VenuesMetar ALERT Operation Metar Decoded Social comments

AIRNAV info for KDIJ